Time;durP1;ratioP1;P1;durP2;ratioP2;P2;SDS_P1;SDS_P2;PMS_P1;PMS_P2;Temp;Humidity;BMP_temperature;BMP_pressure;BME280_temperature;BME280_humidity;BME280_pressure;Samples;Min_cycle;Max_cycle;Signal;HPM_P1;HPM_P2
2021/07/31 00:00:46;;;;;;;5.00;2.05;;;19.50;99.90;;;;;;5051741;28;20136;-68
2021/07/31 00:03:12;;;;;;;7.90;2.17;;;19.60;99.90;;;;;;5053663;28;20384;-67
2021/07/31 00:05:37;;;;;;;7.13;2.30;;;19.40;99.90;;;;;;5046244;28;20021;-68
2021/07/31 00:08:03;;;;;;;6.10;2.20;;;19.40;99.90;;;;;;5051078;28;20480;-68
2021/07/31 00:10:29;;;;;;;8.70;2.35;;;19.40;99.90;;;;;;5047883;28;20457;-68
2021/07/31 00:12:54;;;;;;;7.53;2.33;;;19.30;99.90;;;;;;5051604;28;20457;-68
2021/07/31 00:15:20;;;;;;;6.43;2.13;;;19.30;99.90;;;;;;5056595;28;20056;-68
2021/07/31 00:17:46;;;;;;;5.20;2.33;;;19.30;99.90;;;;;;5052936;28;20658;-68
2021/07/31 00:20:12;;;;;;;7.97;2.42;;;19.30;99.90;;;;;;5053732;28;20025;-67
2021/07/31 00:22:37;;;;;;;4.82;2.20;;;19.30;99.90;;;;;;5048160;28;20026;-68
2021/07/31 00:25:04;;;;;;;11.48;2.63;;;19.40;99.90;;;;;;5052855;28;20033;-68
2021/07/31 00:27:29;;;;;;;3.92;1.80;;;19.40;99.90;;;;;;5055556;28;20016;-68
2021/07/31 00:29:55;;;;;;;9.15;2.35;;;19.30;99.90;;;;;;5049038;28;20029;-69
2021/07/31 00:32:21;;;;;;;5.20;2.05;;;19.40;99.90;;;;;;5050246;28;20028;-68
2021/07/31 00:34:46;;;;;;;4.70;1.70;;;19.30;99.90;;;;;;5056652;28;20036;-69
2021/07/31 00:37:12;;;;;;;6.32;2.42;;;19.30;99.90;;;;;;5053160;28;20495;-68
2021/07/31 00:39:40;;;;;;;8.05;2.50;;;19.20;99.90;;;;;;5051083;28;20023;-69
2021/07/31 00:42:07;;;;;;;8.32;2.47;;;19.30;99.90;;;;;;5052095;28;20025;-68
2021/07/31 00:44:33;;;;;;;8.23;2.60;;;19.40;99.90;;;;;;5053335;28;20124;-69
2021/07/31 00:46:59;;;;;;;8.25;2.10;;;19.40;99.90;;;;;;5052914;28;20107;-69
2021/07/31 00:49:26;;;;;;;7.63;2.95;;;19.30;99.90;;;;;;5046234;28;20111;-68
2021/07/31 00:51:51;;;;;;;7.55;2.30;;;19.30;99.90;;;;;;5047858;28;20478;-68
2021/07/31 00:54:18;;;;;;;5.70;2.17;;;19.20;99.90;;;;;;5052175;28;20069;-69
2021/07/31 00:56:44;;;;;;;6.72;2.30;;;19.30;99.90;;;;;;5047711;28;20025;-69
2021/07/31 00:59:10;;;;;;;8.73;2.55;;;19.30;99.90;;;;;;5053962;28;20024;-68
2021/07/31 01:01:37;;;;;;;9.48;2.22;;;19.30;99.90;;;;;;5051636;28;20107;-69
2021/07/31 01:04:03;;;;;;;6.10;2.90;;;19.30;99.90;;;;;;5046253;28;20489;-68
2021/07/31 01:06:28;;;;;;;4.53;2.50;;;19.30;99.90;;;;;;5047100;28;20060;-69
2021/07/31 01:08:54;;;;;;;10.35;3.00;;;19.30;99.90;;;;;;5049182;28;20151;-70
2021/07/31 01:11:20;;;;;;;7.63;2.20;;;19.20;99.90;;;;;;5052695;28;20052;-68
2021/07/31 01:13:46;;;;;;;6.38;2.00;;;19.20;99.90;;;;;;5049566;28;20032;-69
2021/07/31 01:16:12;;;;;;;7.15;2.33;;;19.30;99.90;;;;;;5050809;28;20104;-69
2021/07/31 01:18:38;;;;;;;7.85;2.35;;;19.20;99.90;;;;;;5046348;28;20049;-70
2021/07/31 01:21:04;;;;;;;6.15;2.40;;;19.20;99.90;;;;;;5066984;28;20436;-69
2021/07/31 01:23:30;;;;;;;7.18;2.95;;;19.20;99.90;;;;;;5051931;28;20070;-70
2021/07/31 01:25:56;;;;;;;6.78;2.20;;;19.10;99.90;;;;;;5051143;28;20025;-70
2021/07/31 01:28:23;;;;;;;8.77;2.50;;;19.20;99.90;;;;;;5047216;28;20099;-70
2021/07/31 01:30:48;;;;;;;7.40;3.15;;;19.20;99.90;;;;;;5047834;28;20055;-69
2021/07/31 01:33:14;;;;;;;5.10;2.20;;;19.10;99.90;;;;;;5049548;28;20063;-69
2021/07/31 01:35:39;;;;;;;7.85;2.63;;;19.10;99.90;;;;;;5050796;28;20063;-71
2021/07/31 01:38:05;;;;;;;8.57;2.50;;;19.10;99.90;;;;;;5049642;28;20021;-70
2021/07/31 01:40:31;;;;;;;10.07;2.70;;;19.20;99.90;;;;;;5046682;28;20029;-70
2021/07/31 01:42:57;;;;;;;7.82;2.70;;;19.20;99.90;;;;;;5052955;28;20500;-69
2021/07/31 01:45:24;;;;;;;6.97;2.53;;;19.30;99.90;;;;;;5051013;28;20117;-71
2021/07/31 01:47:50;;;;;;;8.95;2.83;;;19.30;99.90;;;;;;5049111;28;20024;-69
2021/07/31 01:50:17;;;;;;;12.40;3.30;;;19.20;99.90;;;;;;5047556;28;20037;-68
2021/07/31 01:52:46;;;;;;;7.43;2.95;;;19.30;99.90;;;;;;5046494;28;20096;-68
2021/07/31 01:55:12;;;;;;;9.95;2.55;;;19.30;99.90;;;;;;5050649;28;20043;-68
2021/07/31 01:57:38;;;;;;;7.82;2.95;;;19.30;99.90;;;;;;5046442;28;20017;-69
2021/07/31 02:00:05;;;;;;;7.72;2.88;;;19.20;99.90;;;;;;5044839;28;20441;-69
2021/07/31 02:02:30;;;;;;;8.00;2.78;;;19.20;99.90;;;;;;5051055;28;20033;-69
2021/07/31 02:04:56;;;;;;;12.70;3.00;;;19.30;99.90;;;;;;5060142;28;20108;-69
2021/07/31 02:07:22;;;;;;;7.45;2.70;;;19.20;99.90;;;;;;5054692;28;20061;-68
2021/07/31 02:09:48;;;;;;;8.35;2.60;;;19.20;99.90;;;;;;5057619;28;20066;-69
2021/07/31 02:12:14;;;;;;;9.25;2.80;;;19.20;99.90;;;;;;5064928;28;20069;-69
2021/07/31 02:14:40;;;;;;;8.80;2.80;;;19.20;99.90;;;;;;5048785;28;20025;-68
2021/07/31 02:17:06;;;;;;;4.57;2.28;;;19.20;99.90;;;;;;5065871;28;20032;-68
2021/07/31 02:19:32;;;;;;;7.10;3.30;;;19.20;99.90;;;;;;5063899;28;20032;-68
2021/07/31 02:21:59;;;;;;;9.43;2.83;;;19.30;99.90;;;;;;5063029;28;20024;-68
2021/07/31 02:24:25;;;;;;;7.55;2.47;;;19.20;99.90;;;;;;5062193;28;20222;-68
2021/07/31 02:26:50;;;;;;;6.07;2.45;;;19.20;99.90;;;;;;5061636;28;20109;-68
2021/07/31 02:29:16;;;;;;;8.80;2.45;;;19.30;99.90;;;;;;5057287;28;20039;-68
2021/07/31 02:31:42;;;;;;;8.50;2.70;;;19.30;99.90;;;;;;5052372;28;20104;-68
2021/07/31 02:34:08;;;;;;;7.63;2.50;;;19.20;99.90;;;;;;5062216;28;20100;-68
2021/07/31 02:36:34;;;;;;;9.23;2.78;;;19.20;99.90;;;;;;5057927;28;20056;-68
2021/07/31 02:38:59;;;;;;;5.72;2.47;;;19.10;99.90;;;;;;5049865;28;20035;-68
2021/07/31 02:41:25;;;;;;;6.45;2.50;;;19.10;99.90;;;;;;5057767;28;20527;-67
2021/07/31 02:43:50;;;;;;;4.63;2.10;;;19.10;99.90;;;;;;5063297;28;20012;-68
2021/07/31 02:46:16;;;;;;;8.30;2.55;;;19.10;99.90;;;;;;5061524;28;20477;-68
2021/07/31 02:48:42;;;;;;;7.78;2.70;;;19.10;99.90;;;;;;5051845;28;20056;-69
2021/07/31 02:51:12;;;;;;;6.53;2.58;;;19.00;99.90;;;;;;5058799;28;20097;-68
2021/07/31 02:53:39;;;;;;;7.88;2.55;;;19.00;99.90;;;;;;5059545;28;20028;-69
2021/07/31 02:56:06;;;;;;;7.70;2.50;;;19.00;99.90;;;;;;5059218;28;20055;-69
2021/07/31 02:58:32;;;;;;;8.63;2.92;;;19.10;99.90;;;;;;5064726;28;20403;-68
2021/07/31 03:01:03;;;;;;;8.43;2.55;;;18.90;99.90;;;;;;5059496;28;20048;-68
2021/07/31 03:03:29;;;;;;;8.50;2.40;;;18.90;99.90;;;;;;5048514;28;20461;-68
2021/07/31 03:05:56;;;;;;;9.98;2.80;;;18.90;99.90;;;;;;5062069;28;20104;-69
2021/07/31 03:08:22;;;;;;;7.78;2.72;;;18.90;99.90;;;;;;5050774;28;20150;-68
2021/07/31 03:10:57;;;;;;;9.70;2.95;;;18.80;99.90;;;;;;5063121;28;20484;-68
2021/07/31 03:13:23;;;;;;;8.70;2.47;;;18.80;99.90;;;;;;5056993;28;20029;-68
2021/07/31 03:15:48;;;;;;;8.38;2.40;;;18.80;99.90;;;;;;5051067;28;20029;-70
2021/07/31 03:18:14;;;;;;;5.53;2.75;;;18.80;99.90;;;;;;5057955;28;20389;-68
2021/07/31 03:20:54;;;;;;;5.57;2.40;;;18.80;99.90;;;;;;5059954;28;20071;-70
2021/07/31 03:23:24;;;;;;;7.35;2.63;;;18.90;99.90;;;;;;5049020;28;20029;-69
2021/07/31 03:25:58;;;;;;;6.82;2.50;;;18.90;99.90;;;;;;5062490;28;20101;-68
2021/07/31 03:28:25;;;;;;;8.10;3.00;;;18.90;99.90;;;;;;5055871;28;20028;-68
2021/07/31 03:30:51;;;;;;;5.68;2.53;;;18.80;99.90;;;;;;5059593;28;20006;-68
2021/07/31 03:33:17;;;;;;;7.50;2.50;;;18.90;99.90;;;;;;5057567;28;20030;-69
2021/07/31 03:35:43;;;;;;;5.43;2.78;;;18.90;99.90;;;;;;5057737;28;20120;-68
2021/07/31 03:38:09;;;;;;;6.72;2.90;;;18.80;99.90;;;;;;5057725;28;20017;-68
2021/07/31 03:40:36;;;;;;;6.55;3.05;;;18.70;99.90;;;;;;5060782;28;20027;-68
2021/07/31 03:43:01;;;;;;;6.88;2.80;;;18.80;99.90;;;;;;5059171;28;20477;-68
2021/07/31 03:45:27;;;;;;;7.63;2.60;;;18.80;99.90;;;;;;5050538;28;20028;-68
2021/07/31 03:47:53;;;;;;;6.13;2.22;;;18.80;99.90;;;;;;5060774;28;20028;-69
2021/07/31 03:50:19;;;;;;;5.70;2.65;;;18.80;99.90;;;;;;5047440;28;20024;-68
2021/07/31 03:52:45;;;;;;;5.70;2.80;;;18.60;99.90;;;;;;5060524;28;20028;-69
2021/07/31 03:55:11;;;;;;;4.80;2.13;;;18.60;99.90;;;;;;5056441;28;20045;-67
2021/07/31 03:57:36;;;;;;;6.07;2.90;;;18.70;99.90;;;;;;5053899;28;20039;-68
2021/07/31 04:00:04;;;;;;;6.60;2.30;;;18.60;99.90;;;;;;5061410;28;20029;-67
2021/07/31 04:02:29;;;;;;;9.75;3.25;;;18.70;99.90;;;;;;5059885;28;20040;-67
2021/07/31 04:04:55;;;;;;;4.72;2.85;;;18.70;99.90;;;;;;5050545;28;20025;-68
2021/07/31 04:07:21;;;;;;;5.97;2.42;;;18.70;99.90;;;;;;5055292;28;20082;-67
2021/07/31 04:09:47;;;;;;;6.55;2.85;;;18.70;99.90;;;;;;5052825;28;20033;-67
2021/07/31 04:12:12;;;;;;;10.48;2.85;;;18.70;99.90;;;;;;5058910;28;20024;-67
2021/07/31 04:14:38;;;;;;;10.77;3.17;;;18.70;99.90;;;;;;5047674;28;20045;-67
2021/07/31 04:17:04;;;;;;;6.82;2.42;;;18.60;99.90;;;;;;5052133;28;20051;-68
2021/07/31 04:19:29;;;;;;;6.10;2.65;;;18.70;99.90;;;;;;5058429;28;20083;-68
2021/07/31 04:21:58;;;;;;;6.10;3.17;;;18.70;99.90;;;;;;5050492;28;20037;-68
2021/07/31 04:24:27;;;;;;;9.05;3.00;;;18.60;99.90;;;;;;5060605;28;20045;-67
2021/07/31 04:26:53;;;;;;;3.63;2.50;;;18.70;99.90;;;;;;5045295;28;20447;-68
2021/07/31 04:29:19;;;;;;;6.45;2.53;;;18.70;99.90;;;;;;5057204;28;20021;-68
2021/07/31 04:31:46;;;;;;;7.45;2.80;;;18.60;99.90;;;;;;5058290;28;20032;-67
2021/07/31 04:34:12;;;;;;;5.90;3.03;;;18.80;99.90;;;;;;5054894;28;20028;-68
2021/07/31 04:36:38;;;;;;;6.53;2.67;;;18.70;99.90;;;;;;5061570;28;20032;-68
2021/07/31 04:39:05;;;;;;;7.05;2.72;;;18.60;99.90;;;;;;5059891;28;20046;-67
2021/07/31 04:41:31;;;;;;;8.20;3.05;;;18.70;99.90;;;;;;5054468;28;20059;-68
2021/07/31 04:43:56;;;;;;;5.93;2.95;;;18.70;99.90;;;;;;5048176;28;20528;-68
2021/07/31 04:46:22;;;;;;;7.90;2.72;;;18.60;99.90;;;;;;5054681;28;20029;-68
2021/07/31 04:48:48;;;;;;;5.63;2.20;;;18.50;99.90;;;;;;5053707;28;20029;-68
2021/07/31 04:51:14;;;;;;;4.68;2.83;;;18.60;99.90;;;;;;5056565;28;20103;-69
2021/07/31 04:53:39;;;;;;;5.90;2.45;;;18.70;99.90;;;;;;5063221;28;20025;-68
2021/07/31 04:56:05;;;;;;;4.78;2.63;;;18.70;99.90;;;;;;5059354;28;20037;-67
2021/07/31 04:58:31;;;;;;;4.20;2.70;;;18.70;99.90;;;;;;5061412;28;20025;-67
2021/07/31 05:01:00;;;;;;;4.20;2.42;;;18.70;99.90;;;;;;5063968;28;20035;-68
2021/07/31 05:03:28;;;;;;;6.82;2.78;;;18.70;99.90;;;;;;5056384;28;20033;-68
2021/07/31 05:05:54;;;;;;;5.30;2.13;;;18.70;99.90;;;;;;5055611;28;20075;-69
2021/07/31 05:08:19;;;;;;;6.13;2.40;;;18.80;99.90;;;;;;5054028;28;20036;-68
2021/07/31 05:10:47;;;;;;;3.45;2.25;;;18.80;99.90;;;;;;5049191;28;20424;-68
2021/07/31 05:13:13;;;;;;;6.30;2.53;;;18.80;99.90;;;;;;5055674;28;20355;-68
2021/07/31 05:15:40;;;;;;;6.38;3.08;;;18.60;99.90;;;;;;5050601;28;20043;-68
2021/07/31 05:18:06;;;;;;;5.70;2.53;;;18.80;99.90;;;;;;5052586;28;20021;-68
2021/07/31 05:20:33;;;;;;;6.10;2.58;;;18.70;99.90;;;;;;5054584;28;20037;-68
2021/07/31 05:22:59;;;;;;;6.80;3.00;;;18.70;99.90;;;;;;5054143;28;20025;-68
2021/07/31 05:25:25;;;;;;;5.40;2.42;;;18.80;99.90;;;;;;5061084;28;20072;-68
2021/07/31 05:27:51;;;;;;;4.22;2.70;;;18.70;99.90;;;;;;5055682;28;20056;-67
2021/07/31 05:30:17;;;;;;;8.20;2.95;;;18.80;99.90;;;;;;5063055;28;20032;-68
2021/07/31 05:32:43;;;;;;;5.88;2.60;;;18.80;99.90;;;;;;5053135;28;20101;-69
2021/07/31 05:35:09;;;;;;;7.80;2.83;;;18.70;99.90;;;;;;5061723;28;20058;-69
2021/07/31 05:37:34;;;;;;;3.38;2.67;;;18.80;99.90;;;;;;5056989;28;20093;-68
2021/07/31 05:40:01;;;;;;;7.50;2.88;;;18.80;99.90;;;;;;5064159;28;20472;-68
2021/07/31 05:42:28;;;;;;;8.35;3.00;;;18.90;99.90;;;;;;5066028;28;20496;-69
2021/07/31 05:45:01;;;;;;;6.75;2.72;;;18.80;99.90;;;;;;5064076;28;20029;-72
2021/07/31 05:47:28;;;;;;;4.72;3.08;;;18.80;99.90;;;;;;5068668;28;20357;-69
2021/07/31 05:49:55;;;;;;;10.80;3.20;;;18.80;99.90;;;;;;5062746;28;20036;-72
2021/07/31 05:52:24;;;;;;;5.20;2.90;;;18.80;99.90;;;;;;5062426;28;20028;-69
2021/07/31 05:54:51;;;;;;;5.88;2.72;;;18.80;99.90;;;;;;5064875;28;20048;-68
2021/07/31 05:57:17;;;;;;;7.05;2.40;;;18.80;99.90;;;;;;5054318;28;20036;-67
2021/07/31 05:59:43;;;;;;;6.28;2.90;;;19.00;99.90;;;;;;5066741;28;20020;-68
2021/07/31 06:02:10;;;;;;;5.90;3.10;;;18.90;99.90;;;;;;5052526;28;20385;-69
2021/07/31 06:04:39;;;;;;;6.70;2.80;;;18.90;99.90;;;;;;5064652;28;20503;-68
2021/07/31 06:07:06;;;;;;;6.07;2.90;;;18.80;99.90;;;;;;5059356;28;20070;-67
2021/07/31 06:09:35;;;;;;;4.72;2.97;;;18.90;99.90;;;;;;5059427;28;20032;-68
2021/07/31 06:12:02;;;;;;;7.53;2.95;;;18.90;99.90;;;;;;5066605;28;20044;-68
2021/07/31 06:14:28;;;;;;;9.45;3.50;;;18.90;99.90;;;;;;5066311;28;20372;-68
2021/07/31 06:16:54;;;;;;;7.60;3.00;;;18.90;99.90;;;;;;5064043;28;20037;-68
2021/07/31 06:19:20;;;;;;;8.63;3.53;;;18.80;99.90;;;;;;5061980;28;20031;-69
2021/07/31 06:21:46;;;;;;;11.13;3.67;;;18.90;99.90;;;;;;5053988;28;20548;-68
2021/07/31 06:24:12;;;;;;;6.53;3.40;;;18.90;99.90;;;;;;5052037;28;20025;-68
2021/07/31 06:26:37;;;;;;;4.60;3.22;;;18.90;99.90;;;;;;5064327;28;20155;-69
2021/07/31 06:29:03;;;;;;;5.47;3.35;;;18.90;99.90;;;;;;5068168;28;20031;-69
2021/07/31 06:31:29;;;;;;;7.40;3.10;;;18.90;99.90;;;;;;5058000;28;20496;-67
2021/07/31 06:33:57;;;;;;;5.82;3.90;;;18.90;99.90;;;;;;5056024;28;20020;-68
2021/07/31 06:36:23;;;;;;;5.85;3.58;;;18.80;99.90;;;;;;5059302;28;20090;-68
2021/07/31 06:38:49;;;;;;;5.80;3.50;;;18.90;99.90;;;;;;5063386;28;20020;-68
2021/07/31 06:41:14;;;;;;;4.78;3.20;;;18.80;99.90;;;;;;5055745;28;20115;-69
2021/07/31 06:43:40;;;;;;;7.43;3.35;;;18.90;99.90;;;;;;5064125;28;20036;-69
2021/07/31 06:46:16;;;;;;;5.15;3.78;;;19.00;99.90;;;;;;5067200;28;20025;-68
2021/07/31 06:48:42;;;;;;;6.85;3.10;;;19.10;99.90;;;;;;5056802;28;20028;-72
2021/07/31 06:51:09;;;;;;;4.78;2.83;;;19.20;99.90;;;;;;5058637;28;20029;-67
2021/07/31 06:53:35;;;;;;;5.75;3.38;;;19.30;99.90;;;;;;5061347;28;20442;-68
2021/07/31 06:56:02;;;;;;;7.97;4.85;;;19.30;99.90;;;;;;5056975;28;20094;-67
2021/07/31 06:58:28;;;;;;;4.95;2.88;;;19.20;99.90;;;;;;5051691;28;20048;-67
2021/07/31 07:00:54;;;;;;;8.43;2.88;;;19.20;99.90;;;;;;5061849;28;20082;-67
2021/07/31 07:03:20;;;;;;;4.68;3.00;;;19.30;99.90;;;;;;5058747;28;20037;-68
2021/07/31 07:05:46;;;;;;;7.93;3.30;;;19.30;99.90;;;;;;5053606;28;20103;-72
2021/07/31 07:08:12;;;;;;;6.90;3.28;;;19.30;99.90;;;;;;5056189;28;20044;-72
2021/07/31 07:10:37;;;;;;;8.35;3.40;;;19.30;99.90;;;;;;5067182;28;20032;-73
2021/07/31 07:13:04;;;;;;;8.32;3.35;;;19.30;99.90;;;;;;5048302;28;20025;-73
2021/07/31 07:15:29;;;;;;;5.57;3.42;;;19.30;99.90;;;;;;5060856;28;20508;-73
2021/07/31 07:17:56;;;;;;;5.57;3.00;;;19.40;99.90;;;;;;5061381;28;20033;-72
2021/07/31 07:20:22;;;;;;;6.63;3.03;;;19.50;99.90;;;;;;5056319;28;20032;-70
2021/07/31 07:22:47;;;;;;;6.60;3.15;;;19.60;99.90;;;;;;5048916;28;20334;-73
2021/07/31 07:25:14;;;;;;;9.13;2.90;;;19.70;99.90;;;;;;5055944;28;20041;-69
2021/07/31 07:27:39;;;;;;;7.07;3.20;;;19.80;99.90;;;;;;5066195;28;20016;-68
2021/07/31 07:30:06;;;;;;;6.55;3.67;;;19.90;99.90;;;;;;5058005;28;20100;-72
2021/07/31 07:32:34;;;;;;;7.22;3.47;;;19.90;99.90;;;;;;5047820;28;20114;-72
2021/07/31 07:34:59;;;;;;;6.75;3.20;;;19.90;99.90;;;;;;5057219;28;20103;-72
2021/07/31 07:37:25;;;;;;;5.90;3.40;;;20.00;99.90;;;;;;5053495;28;20115;-71
2021/07/31 07:39:51;;;;;;;8.70;3.00;;;20.00;99.90;;;;;;5052722;28;20035;-73
2021/07/31 07:42:16;;;;;;;6.80;3.55;;;20.10;99.90;;;;;;5048603;28;20151;-73
2021/07/31 07:44:42;;;;;;;6.82;2.95;;;20.20;99.90;;;;;;5054673;28;20027;-73
2021/07/31 07:47:09;;;;;;;6.70;3.03;;;20.30;99.90;;;;;;5058883;28;20037;-73
2021/07/31 07:49:35;;;;;;;5.45;2.80;;;20.30;99.90;;;;;;5057358;28;20029;-73
2021/07/31 07:52:00;;;;;;;12.23;2.65;;;20.50;99.90;;;;;;5049935;28;20087;-73
2021/07/31 07:54:28;;;;;;;6.05;2.40;;;20.50;99.90;;;;;;5054584;28;20044;-72
2021/07/31 07:56:54;;;;;;;7.57;2.85;;;20.60;99.90;;;;;;5047328;28;20032;-73
2021/07/31 07:59:19;;;;;;;4.57;2.80;;;20.50;99.90;;;;;;5056548;28;20021;-73
2021/07/31 08:01:45;;;;;;;4.88;2.20;;;20.40;99.90;;;;;;5067407;28;20472;-72
2021/07/31 08:04:10;;;;;;;3.58;2.53;;;20.50;99.90;;;;;;5056879;28;20040;-73
2021/07/31 08:06:37;;;;;;;6.13;2.80;;;20.50;99.90;;;;;;5049929;28;20436;-73
2021/07/31 08:09:03;;;;;;;3.33;2.60;;;20.50;99.90;;;;;;5071871;28;20024;-73
2021/07/31 08:11:28;;;;;;;6.07;2.40;;;20.60;99.90;;;;;;5064254;28;20074;-72
2021/07/31 08:13:54;;;;;;;4.88;2.63;;;20.60;99.90;;;;;;5049890;28;20112;-74
2021/07/31 08:16:20;;;;;;;6.05;2.80;;;20.70;99.90;;;;;;5055109;28;20120;-72
2021/07/31 08:18:45;;;;;;;4.15;2.83;;;20.60;99.90;;;;;;5050020;28;20032;-72
2021/07/31 08:21:11;;;;;;;4.68;3.08;;;20.50;99.90;;;;;;5051890;28;20028;-72
2021/07/31 08:23:36;;;;;;;5.13;2.85;;;20.60;99.90;;;;;;5056428;28;20543;-72
2021/07/31 08:26:04;;;;;;;4.43;2.30;;;20.60;99.90;;;;;;5054299;28;20493;-72
2021/07/31 08:28:31;;;;;;;5.68;2.95;;;20.70;99.90;;;;;;5057001;28;20163;-72
2021/07/31 08:30:56;;;;;;;4.93;2.80;;;20.80;99.90;;;;;;5054429;28;20027;-73
2021/07/31 08:33:22;;;;;;;5.93;3.00;;;20.90;99.90;;;;;;5058399;28;20029;-74
2021/07/31 08:35:48;;;;;;;4.22;2.67;;;21.00;99.90;;;;;;5049448;28;20523;-72
2021/07/31 08:38:13;;;;;;;3.40;2.38;;;21.10;99.90;;;;;;5061440;28;20028;-72
2021/07/31 08:40:39;;;;;;;3.53;2.55;;;21.10;99.90;;;;;;5053760;28;20021;-72
2021/07/31 08:43:05;;;;;;;5.65;3.33;;;21.10;99.90;;;;;;5055736;28;20031;-72
2021/07/31 08:45:32;;;;;;;6.43;2.95;;;21.20;99.90;;;;;;5064538;28;20021;-73
2021/07/31 08:48:00;;;;;;;3.97;2.40;;;21.30;99.90;;;;;;5057945;28;20104;-73
2021/07/31 08:50:26;;;;;;;6.25;2.70;;;21.40;99.90;;;;;;5061172;28;20028;-73
2021/07/31 08:52:55;;;;;;;4.57;2.75;;;21.50;99.90;;;;;;5052349;28;20057;-70
2021/07/31 08:55:20;;;;;;;4.43;2.70;;;21.50;99.90;;;;;;5049817;28;20459;-73
2021/07/31 08:57:46;;;;;;;4.40;2.35;;;21.70;99.90;;;;;;5059981;28;20032;-72
2021/07/31 09:00:12;;;;;;;2.78;1.88;;;21.70;99.90;;;;;;5058730;28;20039;-73
2021/07/31 09:02:43;;;;;;;4.90;2.65;;;21.80;99.90;;;;;;5053396;28;20031;-72
2021/07/31 09:05:10;;;;;;;3.92;2.33;;;22.00;99.90;;;;;;5047874;28;20021;-73
2021/07/31 09:07:36;;;;;;;3.42;2.10;;;21.90;99.90;;;;;;5058542;28;20023;-73
2021/07/31 09:10:24;;;;;;;4.53;2.40;;;21.90;99.90;;;;;;5053361;28;20443;-72
2021/07/31 09:12:58;;;;;;;4.25;1.65;;;21.90;99.90;;;;;;5051145;28;20029;-73
2021/07/31 09:15:39;;;;;;;2.40;1.77;;;22.10;99.90;;;;;;5043512;28;20029;-72
2021/07/31 09:18:23;;;;;;;4.30;1.60;;;22.20;99.90;;;;;;5056210;28;20376;-73
2021/07/31 09:21:06;;;;;;;4.82;2.45;;;22.20;99.90;;;;;;5060388;28;20054;-72
2021/07/31 09:23:52;;;;;;;3.50;1.70;;;22.20;99.90;;;;;;5058301;28;20040;-72
2021/07/31 09:26:22;;;;;;;2.72;2.10;;;22.10;99.90;;;;;;5045568;28;20033;-69
2021/07/31 09:29:09;;;;;;;3.55;1.73;;;22.20;99.90;;;;;;5055894;28;20021;-69
2021/07/31 09:31:53;;;;;;;8.68;1.60;;;22.30;99.90;;;;;;5048220;28;20070;-71
2021/07/31 09:34:36;;;;;;;3.75;1.55;;;22.20;99.90;;;;;;5056981;28;20029;-70
2021/07/31 09:37:27;;;;;;;1.98;1.30;;;22.20;99.90;;;;;;5048719;28;20505;-69
2021/07/31 09:39:59;;;;;;;4.25;1.60;;;22.30;99.90;;;;;;5063773;28;20535;-68
2021/07/31 09:42:39;;;;;;;2.08;1.35;;;22.10;99.90;;;;;;5053600;28;20025;-69
2021/07/31 09:45:06;;;;;;;6.53;1.70;;;22.10;99.90;;;;;;5052985;28;20074;-68
2021/07/31 09:47:32;;;;;;;2.65;1.65;;;22.00;99.90;;;;;;5036830;28;20498;-69
2021/07/31 09:49:58;;;;;;;2.28;1.60;;;22.10;99.90;;;;;;5051937;28;20036;-70
2021/07/31 09:52:24;;;;;;;3.00;1.80;;;22.10;99.90;;;;;;5059390;28;20055;-69
2021/07/31 09:54:51;;;;;;;4.78;1.92;;;22.10;99.90;;;;;;5058379;28;20029;-68
2021/07/31 09:57:18;;;;;;;3.33;1.77;;;22.10;99.90;;;;;;5054725;28;20056;-69
2021/07/31 09:59:48;;;;;;;4.78;1.90;;;22.20;99.90;;;;;;5048106;28;20028;-68
2021/07/31 10:02:19;;;;;;;5.07;1.50;;;22.30;99.90;;;;;;5060966;28;20044;-72
2021/07/31 10:04:46;;;;;;;3.47;1.85;;;22.30;99.90;;;;;;5059316;28;20516;-69
2021/07/31 10:07:13;;;;;;;3.97;2.42;;;22.50;99.90;;;;;;5046322;28;20029;-69
2021/07/31 10:09:41;;;;;;;5.50;2.67;;;22.60;99.90;;;;;;5059455;28;20040;-68
2021/07/31 10:12:10;;;;;;;6.53;2.22;;;22.70;99.90;;;;;;5061312;28;20033;-69
2021/07/31 10:14:38;;;;;;;3.03;1.80;;;22.80;99.90;;;;;;5048015;28;20481;-69
2021/07/31 10:17:04;;;;;;;3.78;2.20;;;22.80;99.90;;;;;;5056354;28;20099;-72
2021/07/31 10:19:39;;;;;;;3.42;1.80;;;22.90;99.90;;;;;;5051581;28;20108;-73
2021/07/31 10:22:04;;;;;;;6.80;1.98;;;22.90;99.90;;;;;;5047350;28;20026;-72
2021/07/31 10:24:59;;;;;;;2.38;1.88;;;23.00;99.90;;;;;;5052569;28;20029;-72
2021/07/31 10:27:25;;;;;;;3.92;2.05;;;22.90;99.90;;;;;;5059732;28;20104;-72
2021/07/31 10:29:54;;;;;;;3.95;2.13;;;22.80;99.90;;;;;;5052979;28;20123;-73
2021/07/31 10:32:20;;;;;;;4.78;2.35;;;22.70;99.90;;;;;;5054910;28;20100;-71
2021/07/31 10:34:54;;;;;;;8.98;2.40;;;22.70;99.90;;;;;;5057993;28;20576;-69
2021/07/31 10:37:29;;;;;;;3.50;2.15;;;22.60;99.90;;;;;;5055493;28;20026;-74
2021/07/31 10:39:56;;;;;;;6.00;2.40;;;22.80;99.90;;;;;;5057895;28;20540;-71
2021/07/31 10:42:22;;;;;;;5.75;2.22;;;22.80;99.90;;;;;;5058360;28;20091;-73
2021/07/31 10:45:16;;;;;;;4.53;2.63;;;22.80;99.90;;;;;;5065387;28;20025;-72
2021/07/31 10:47:53;;;;;;;4.45;2.78;;;22.80;99.90;;;;;;5043529;28;20064;-72
2021/07/31 10:50:25;;;;;;;5.25;2.10;;;22.80;99.90;;;;;;5054965;28;20029;-68
2021/07/31 10:52:55;;;;;;;3.80;2.15;;;22.70;99.90;;;;;;5054871;28;20794;-69
2021/07/31 10:55:37;;;;;;;3.10;2.20;;;22.70;99.90;;;;;;5063525;28;20045;-69
2021/07/31 10:58:06;;;;;;;2.63;1.80;;;22.60;99.90;;;;;;5051452;28;20033;-71
2021/07/31 11:00:34;;;;;;;6.07;2.63;;;22.40;99.90;;;;;;5053726;28;20028;-71
2021/07/31 11:03:05;;;;;;;4.82;2.50;;;22.40;99.90;;;;;;5053764;28;20056;-69
2021/07/31 11:05:54;;;;;;;4.38;2.20;;;22.30;99.90;;;;;;5050084;28;20033;-69
2021/07/31 11:08:21;;;;;;;3.97;1.73;;;22.40;99.90;;;;;;5058365;28;20112;-71
2021/07/31 11:10:51;;;;;;;3.38;1.70;;;22.40;99.90;;;;;;5062813;28;20028;-69
2021/07/31 11:13:17;;;;;;;2.88;1.85;;;22.50;99.90;;;;;;5056031;28;20043;-71
2021/07/31 11:16:03;;;;;;;4.50;1.90;;;22.50;99.90;;;;;;5058020;28;20044;-70
2021/07/31 11:18:38;;;;;;;6.35;1.85;;;22.50;99.90;;;;;;5044347;28;20037;-69
2021/07/31 11:21:20;;;;;;;4.50;1.85;;;22.50;99.90;;;;;;5041763;28;20048;-70
2021/07/31 11:24:00;;;;;;;3.88;1.70;;;22.40;99.90;;;;;;5048323;28;20025;-70
2021/07/31 11:26:55;;;;;;;4.07;1.70;;;22.40;99.90;;;;;;5059680;28;20119;-72
2021/07/31 11:29:25;;;;;;;2.38;1.70;;;22.30;99.90;;;;;;5057315;28;20033;-72
2021/07/31 11:32:03;;;;;;;2.70;1.50;;;22.20;99.90;;;;;;5052714;28;20507;-73
2021/07/31 11:34:40;;;;;;;2.47;2.15;;;22.00;99.90;;;;;;5054732;28;20108;-73
2021/07/31 11:37:09;;;;;;;4.60;2.40;;;21.90;99.90;;;;;;5052726;28;20033;-74
2021/07/31 11:39:36;;;;;;;5.72;2.38;;;21.90;99.90;;;;;;5053452;28;20029;-72
2021/07/31 11:42:02;;;;;;;3.83;2.58;;;21.90;99.90;;;;;;5050711;28;20113;-71
2021/07/31 11:44:29;;;;;;;3.92;2.20;;;21.80;99.90;;;;;;5062619;28;20134;-70
2021/07/31 11:46:55;;;;;;;3.15;2.45;;;22.00;99.90;;;;;;5059475;28;20485;-69
2021/07/31 11:49:24;;;;;;;3.28;1.90;;;22.20;99.90;;;;;;5048760;28;20103;-69
2021/07/31 11:51:50;;;;;;;4.50;2.00;;;22.30;99.90;;;;;;5057894;28;20043;-69
2021/07/31 11:54:16;;;;;;;5.15;1.88;;;22.60;99.90;;;;;;5047751;28;20020;-69
2021/07/31 11:56:45;;;;;;;4.32;1.98;;;22.80;99.90;;;;;;5058641;28;20415;-69
2021/07/31 11:59:11;;;;;;;1.80;1.70;;;22.80;99.90;;;;;;5058686;28;20013;-69
2021/07/31 12:01:46;;;;;;;3.40;2.05;;;22.80;99.90;;;;;;5047720;28;20121;-71
2021/07/31 12:04:11;;;;;;;2.53;1.70;;;22.80;99.90;;;;;;5053310;28;20107;-71
2021/07/31 12:06:37;;;;;;;1.90;1.77;;;23.10;99.90;;;;;;5061732;28;20100;-73
2021/07/31 12:09:18;;;;;;;3.50;1.63;;;23.40;99.90;;;;;;5049736;28;20473;-72
2021/07/31 12:11:45;;;;;;;2.63;1.70;;;23.50;99.90;;;;;;5050930;28;20513;-72
2021/07/31 12:14:30;;;;;;;2.33;1.42;;;23.60;99.90;;;;;;5061863;28;20021;-72
2021/07/31 12:17:16;;;;;;;1.95;1.63;;;23.70;99.90;;;;;;5050408;28;20044;-71
2021/07/31 12:19:44;;;;;;;1.80;1.48;;;24.10;99.90;;;;;;5051524;28;20033;-73
2021/07/31 12:22:13;;;;;;;4.22;1.73;;;24.20;99.90;;;;;;5056477;28;20037;-72
2021/07/31 12:24:38;;;;;;;3.53;1.85;;;24.40;99.90;;;;;;5050103;28;20192;-72
2021/07/31 12:27:04;;;;;;;3.22;2.00;;;24.70;99.90;;;;;;5058170;28;20025;-72
2021/07/31 12:29:35;;;;;;;2.25;1.70;;;24.90;99.90;;;;;;5062353;28;20025;-72
2021/07/31 12:32:20;;;;;;;2.08;1.73;;;25.10;99.70;;;;;;5043736;28;20393;-72
2021/07/31 12:34:46;;;;;;;2.33;1.58;;;25.00;99.90;;;;;;5053184;28;20029;-72
2021/07/31 12:37:12;;;;;;;3.53;1.85;;;25.00;99.90;;;;;;5058186;28;20028;-72
2021/07/31 12:39:37;;;;;;;2.53;1.90;;;24.90;99.90;;;;;;5046158;28;20135;-72
2021/07/31 12:42:04;;;;;;;1.85;1.73;;;25.00;99.90;;;;;;5058696;28;20036;-71
2021/07/31 12:44:30;;;;;;;2.03;1.70;;;25.20;99.90;;;;;;5056466;28;20027;-71
2021/07/31 12:46:57;;;;;;;1.80;1.70;;;25.40;99.90;;;;;;5053689;28;20030;-72
2021/07/31 12:49:23;;;;;;;2.35;2.15;;;25.40;99.90;;;;;;5045109;28;20070;-69